Time;durP1;ratioP1;P1;durP2;ratioP2;P2;SDS_P1;SDS_P2;PMS_P1;PMS_P2;Temp;Humidity;BMP_temperature;BMP_pressure;BME280_temperature;BME280_humidity;BME280_pressure;Samples;Min_cycle;Max_cycle;Signal;HPM_P1;HPM_P2
2023/01/22 00:00:09;;;;;;;;;49.67;40.00;;;;;-0.98;99.51;99024.69;4957296;28;102159;-75
2023/01/22 00:02:36;;;;;;;;;64.00;46.00;;;;;-1.08;100.00;99008.63;4952692;28;102290;-75
2023/01/22 00:05:04;;;;;;;;;54.33;41.67;;;;;-1.01;100.00;99033.75;4955820;28;103996;-75
2023/01/22 00:07:31;;;;;;;;;66.00;49.33;;;;;-1.03;100.00;99026.84;4972692;28;102589;-76
2023/01/22 00:10:01;;;;;;;;;59.67;43.33;;;;;-1.05;100.00;99023.50;4972282;28;102118;-75
2023/01/22 00:12:28;;;;;;;;;42.67;26.00;;;;;-1.00;100.00;99027.50;4964053;28;102885;-76
2023/01/22 00:14:55;;;;;;;;;43.33;33.67;;;;;-1.00;99.88;99032.81;4972322;28;104057;-74
2023/01/22 00:17:22;;;;;;;;;48.67;39.67;;;;;-1.04;100.00;99036.66;4972292;28;103810;-75
2023/01/22 00:19:49;;;;;;;;;69.33;51.67;;;;;-1.09;100.00;99041.47;4956285;28;102179;-75
2023/01/22 00:22:16;;;;;;;;;76.00;56.75;;;;;-1.11;100.00;99040.72;4956384;28;102484;-75
2023/01/22 00:24:43;;;;;;;;;83.00;60.75;;;;;-1.14;100.00;99046.28;4959833;28;103747;-75
2023/01/22 00:27:10;;;;;;;;;79.50;54.75;;;;;-1.15;100.00;99041.94;4955669;28;102234;-77
2023/01/22 00:29:37;;;;;;;;;64.00;48.67;;;;;-1.12;100.00;99054.09;4962023;28;101918;-74
2023/01/22 00:32:04;;;;;;;;;69.33;51.33;;;;;-1.12;100.00;99052.28;4969426;28;102288;-76
2023/01/22 00:34:31;;;;;;;;;79.00;58.00;;;;;-1.13;100.00;99053.28;4967349;28;103987;-75
2023/01/22 00:36:58;;;;;;;;;79.00;56.75;;;;;-1.23;100.00;99033.72;4963788;28;102427;-76
2023/01/22 00:39:25;;;;;;;;;70.67;52.33;;;;;-1.12;100.00;99052.28;4970429;28;103076;-76
2023/01/22 00:41:52;;;;;;;;;85.00;57.00;;;;;-1.13;100.00;99047.13;4989144;27;102167;-76
2023/01/22 00:44:19;;;;;;;;;67.00;46.00;;;;;-1.09;100.00;99053.88;4958805;28;104170;-74
2023/01/22 00:46:46;;;;;;;;;75.00;60.00;;;;;-1.11;100.00;99056.66;4969884;28;102349;-74
2023/01/22 00:49:13;;;;;;;;;71.00;54.00;;;;;-1.10;100.00;99055.69;4964353;28;102229;-75
2023/01/22 00:51:40;;;;;;;;;73.25;56.00;;;;;-1.11;100.00;99051.34;4952339;28;102394;-76
2023/01/22 00:54:07;;;;;;;;;86.00;60.75;;;;;-1.12;100.00;99052.28;4961943;28;103951;-75
2023/01/22 00:56:34;;;;;;;;;78.67;57.67;;;;;-1.09;100.00;99060.03;4952578;28;102256;-76
2023/01/22 00:59:08;;;;;;;;;86.50;62.00;;;;;-1.11;100.00;99054.00;4968115;28;102956;-75
2023/01/22 01:01:38;;;;;;;;;65.67;53.67;;;;;-1.06;100.00;99062.44;4945935;27;105513;-75
2023/01/22 01:04:05;;;;;;;;;42.00;35.33;;;;;-1.01;100.00;99070.91;4948699;28;104150;-75
2023/01/22 01:06:32;;;;;;;;;66.00;53.00;;;;;-1.03;100.00;99072.81;4948035;28;102301;-76
2023/01/22 01:08:59;;;;;;;;;81.00;53.67;;;;;-1.06;100.00;99065.09;4953348;28;101795;-74
2023/01/22 01:11:26;;;;;;;;;74.50;55.75;;;;;-1.16;100.00;99053.50;4959453;28;102347;-75
2023/01/22 01:13:53;;;;;;;;;80.25;59.50;;;;;-1.09;100.00;99083.91;4955938;28;104023;-73
2023/01/22 01:16:28;;;;;;;;;80.33;58.00;;;;;-1.09;100.00;99070.66;4952146;28;102339;-75
2023/01/22 01:19:07;;;;;;;;;73.00;58.50;;;;;-1.11;100.00;99067.25;4952545;28;102312;-75
2023/01/22 01:21:34;;;;;;;;;75.00;56.75;;;;;-1.08;100.00;99055.59;4946229;28;102148;-75
2023/01/22 01:24:01;;;;;;;;;69.00;51.00;;;;;-1.05;100.00;99055.34;4965097;28;104016;-76
2023/01/22 01:26:29;;;;;;;;;67.33;50.67;;;;;-1.03;100.00;99056.91;4951822;28;102886;-76
2023/01/22 01:28:55;;;;;;;;;46.33;40.00;;;;;-1.01;100.00;99056.78;4970749;28;102575;-76
2023/01/22 01:31:25;;;;;;;;;50.67;40.33;;;;;-1.03;100.00;99043.63;4967580;28;102185;-74
2023/01/22 01:33:52;;;;;;;;;61.00;47.00;;;;;-1.03;100.00;99053.41;4962179;28;104041;-75
2023/01/22 01:36:22;;;;;;;;;50.00;42.00;;;;;-0.95;100.00;99051.03;4973133;28;102241;-76
2023/01/22 01:39:09;;;;;;;;;25.67;19.00;;;;;-0.90;100.00;99055.00;4971749;28;102192;-75
2023/01/22 01:41:36;;;;;;;;;28.33;27.33;;;;;-0.85;100.00;99051.97;4967745;28;103057;-76
2023/01/22 01:44:17;;;;;;;;;28.00;22.33;;;;;-0.84;100.00;99053.69;4960204;28;104217;-75
2023/01/22 01:47:31;;;;;;;;;35.00;25.33;;;;;-0.82;100.00;99061.53;4958217;28;102287;-74
2023/01/22 01:49:58;;;;;;;;;27.67;21.00;;;;;-0.82;100.00;99062.38;4948918;28;102136;-74
2023/01/22 01:52:25;;;;;;;;;29.33;22.00;;;;;-0.82;100.00;99078.31;4962569;27;102055;-75
2023/01/22 01:54:56;;;;;;;;;42.67;34.33;;;;;-0.84;100.00;99082.03;4963377;28;104141;-76
2023/01/22 01:57:28;;;;;;;;;32.00;26.67;;;;;-0.81;100.00;99089.78;4969856;28;102528;-74
2023/01/22 01:59:57;;;;;;;;;31.00;27.67;;;;;-0.81;100.00;99089.78;4943557;28;101992;-74
2023/01/22 02:02:24;;;;;;;;;23.00;20.33;;;;;-0.78;100.00;99095.69;4963182;28;103062;-76
2023/01/22 02:04:52;;;;;;;;;23.00;21.00;;;;;-0.82;100.00;99093.38;4958041;28;104019;-75
2023/01/22 02:07:29;;;;;;;;;15.67;11.00;;;;;-0.73;100.00;99103.31;4968602;28;102166;-76
2023/01/22 02:10:15;;;;;;;;;38.33;29.67;;;;;-0.78;100.00;99108.97;4967282;28;102072;-75
2023/01/22 02:13:09;;;;;;;;;53.00;42.00;;;;;-1.00;99.93;99085.03;4951314;28;102418;-74
2023/01/22 02:15:54;;;;;;;;;29.33;23.67;;;;;-0.80;100.00;99112.69;4958459;28;108015;-75
2023/01/22 02:18:36;;;;;;;;;45.33;38.67;;;;;-0.82;100.00;99111.97;4970164;28;102523;-75
2023/01/22 02:21:35;;;;;;;;;24.00;15.00;;;;;-0.82;99.67;99111.97;4970822;28;102104;-76
2023/01/22 02:24:20;;;;;;;;;33.67;25.00;;;;;-0.79;100.00;99109.06;4941798;28;102541;-76
2023/01/22 02:26:54;;;;;;;;;32.00;25.67;;;;;-0.79;100.00;99098.44;4942995;28;107417;-74
2023/01/22 02:29:21;;;;;;;;;29.67;24.33;;;;;-0.74;99.97;99112.22;4964769;28;102264;-74
2023/01/22 02:31:48;;;;;;;;;32.00;28.00;;;;;-0.74;99.57;99113.06;4963727;28;102028;-74
2023/01/22 02:34:15;;;;;;;;;34.33;30.67;;;;;-0.74;100.00;99114.88;4960615;28;102036;-75
2023/01/22 02:36:42;;;;;;;;;36.00;28.33;;;;;-0.76;99.46;99114.13;4961204;28;104046;-75
2023/01/22 02:39:09;;;;;;;;;30.00;23.67;;;;;-0.75;99.93;99115.84;4970776;28;102230;-75
2023/01/22 02:41:36;;;;;;;;;40.00;32.67;;;;;-0.85;99.79;99104.22;4957727;28;102121;-75
2023/01/22 02:44:06;;;;;;;;;32.67;25.33;;;;;-0.78;99.66;99108.97;4966853;28;102451;-74
2023/01/22 02:46:33;;;;;;;;;36.33;28.00;;;;;-0.75;99.74;99114.03;4972875;28;104223;-75
2023/01/22 02:49:00;;;;;;;;;27.00;20.00;;;;;-0.77;99.80;99099.19;4971380;28;102768;-74
2023/01/22 02:51:28;;;;;;;;;14.67;14.33;;;;;-0.70;100.00;99105.72;4971424;28;103901;-75
2023/01/22 02:53:55;;;;;;;;;24.00;16.00;;;;;-0.68;99.75;99106.44;4970275;27;102472;-76
2023/01/22 02:56:22;;;;;;;;;23.00;18.33;;;;;-0.81;99.02;99079.97;4962594;28;103968;-75
2023/01/22 02:58:49;;;;;;;;;20.33;16.67;;;;;-0.72;99.42;99092.53;4969230;28;102204;-75
2023/01/22 03:01:19;;;;;;;;;32.67;21.67;;;;;-0.68;99.98;99106.44;4935388;28;102179;-76
2023/01/22 03:03:54;;;;;;;;;40.33;29.00;;;;;-0.73;99.28;99098.00;4961158;28;102026;-75
2023/01/22 03:06:24;;;;;;;;;60.33;46.00;;;;;-0.82;99.61;99102.19;4965134;28;108982;-75
2023/01/22 03:08:56;;;;;;;;;44.33;35.67;;;;;-0.84;100.00;99084.69;4960226;28;102299;-76
2023/01/22 03:11:26;;;;;;;;;55.00;41.33;;;;;-1.06;99.20;99067.75;4965277;28;102469;-74
2023/01/22 03:22:14;;;;;;;;;36.67;31.67;;;;;-0.78;98.27;99100.16;4937791;28;102419;-75
2023/01/22 03:24:42;;;;;;;;;31.00;27.33;;;;;-0.78;98.44;99101.00;4944479;28;102365;-76
2023/01/22 03:27:09;;;;;;;;;40.67;25.33;;;;;-0.80;98.33;99096.75;4954526;28;103130;-75
2023/01/22 03:29:37;;;;;;;;;21.33;19.00;;;;;-0.74;99.25;99097.16;4964074;28;102428;-75
2023/01/22 03:32:05;;;;;;;;;30.67;21.33;;;;;-0.72;99.02;99107.66;4954620;28;102066;-75
2023/01/22 03:34:32;;;;;;;;;20.67;15.33;;;;;-0.75;98.25;99097.25;4964346;28;102330;-76
2023/01/22 03:36:59;;;;;;;;;26.67;21.67;;;;;-0.83;97.85;99094.34;4957155;28;104023;-75
2023/01/22 03:39:27;;;;;;;;;24.67;19.33;;;;;-0.81;97.66;99105.72;4944039;28;102281;-74
2023/01/22 03:41:54;;;;;;;;;23.33;16.67;;;;;-0.73;97.50;99119.22;4961052;28;102336;-74
2023/01/22 03:44:21;;;;;;;;;18.67;16.67;;;;;-0.71;97.82;99107.53;4965853;28;102999;-75
2023/01/22 03:46:48;;;;;;;;;18.00;16.00;;;;;-0.72;97.05;99112.97;4960383;28;111194;-75
2023/01/22 03:49:15;;;;;;;;;15.33;9.00;;;;;-0.66;98.19;99109.81;4963629;28;102440;-75
2023/01/22 03:51:43;;;;;;;;;11.33;9.00;;;;;-0.74;97.58;99097.16;4966490;28;101959;-75
2023/01/22 03:54:11;;;;;;;;;11.00;7.67;;;;;-0.75;97.45;99089.28;4956753;28;102313;-74
2023/01/22 03:56:39;;;;;;;;;8.00;7.00;;;;;-0.62;97.63;99120.09;4958352;28;104727;-75
2023/01/22 03:59:06;;;;;;;;;15.33;12.67;;;;;-0.71;97.59;99109.31;4950350;28;103963;-75
2023/01/22 04:01:33;;;;;;;;;12.00;8.75;;;;;-0.62;97.37;99112.13;4960322;28;102081;-74
2023/01/22 04:04:00;;;;;;;;;10.00;6.33;;;;;-0.63;96.93;99123.69;4966311;28;102187;-74
2023/01/22 04:06:29;;;;;;;;;11.00;8.00;;;;;-0.62;97.18;99117.44;4979469;28;103181;-76
2023/01/22 04:08:56;;;;;;;;;15.00;11.00;;;;;-0.65;97.25;99114.16;4971511;28;102546;-74
2023/01/22 04:11:23;;;;;;;;;19.33;15.33;;;;;-0.73;97.03;99100.66;4984357;28;102421;-75
2023/01/22 04:13:50;;;;;;;;;25.00;18.67;;;;;-0.78;96.97;99108.13;4984020;28;102163;-75
2023/01/22 04:16:17;;;;;;;;;32.00;23.33;;;;;-0.81;97.01;99109.19;4984126;28;102961;-76
2023/01/22 04:18:44;;;;;;;;;21.67;15.33;;;;;-0.77;98.04;99101.84;4973360;28;102246;-75
2023/01/22 04:21:11;;;;;;;;;22.67;15.67;;;;;-0.80;97.05;99104.72;4969715;28;102326;-75
2023/01/22 04:23:38;;;;;;;;;23.33;19.67;;;;;-0.90;97.09;99100.13;4970617;28;102100;-75
2023/01/22 04:26:05;;;;;;;;;19.00;12.00;;;;;-0.79;97.04;99114.38;4972251;28;104023;-75
2023/01/22 04:28:32;;;;;;;;;13.67;11.67;;;;;-0.79;97.01;99115.22;4960157;28;102074;-75
2023/01/22 04:30:59;;;;;;;;;21.00;16.00;;;;;-0.80;96.38;99128.63;4967421;28;102700;-75
2023/01/22 04:33:27;;;;;;;;;15.00;12.33;;;;;-0.80;96.60;99126.81;4966783;28;102335;-75
2023/01/22 04:35:54;;;;;;;;;11.33;11.00;;;;;-0.78;96.74;99124.03;4949128;27;104016;-74
2023/01/22 04:38:21;;;;;;;;;18.67;16.00;;;;;-0.83;97.50;99129.72;4953587;28;104001;-76
2023/01/22 04:40:48;;;;;;;;;14.33;11.33;;;;;-0.81;97.55;99124.28;4957633;28;102456;-75
2023/01/22 04:43:15;;;;;;;;;18.00;14.67;;;;;-0.85;97.32;99120.16;4951158;28;102457;-75
2023/01/22 04:45:42;;;;;;;;;10.33;8.33;;;;;-0.82;96.78;99126.09;4965406;28;103974;-75
2023/01/22 04:48:09;;;;;;;;;8.00;5.00;;;;;-0.78;96.74;99116.09;4969786;28;104309;-75
2023/01/22 04:50:37;;;;;;;;;7.00;6.33;;;;;-0.91;96.62;99102.91;4963856;28;102036;-75
2023/01/22 04:53:04;;;;;;;;;12.00;11.00;;;;;-0.83;96.77;99123.53;4971238;28;102345;-75
2023/01/22 04:55:31;;;;;;;;;9.00;8.67;;;;;-0.88;96.10;99121.25;4971562;28;104027;-75
2023/01/22 04:57:59;;;;;;;;;11.33;10.33;;;;;-0.89;96.73;99116.88;4972185;27;102889;-75
2023/01/22 05:00:29;;;;;;;;;12.67;9.00;;;;;-0.96;96.90;99107.72;4971963;28;102161;-78
2023/01/22 05:02:58;;;;;;;;;16.33;9.67;;;;;-1.19;97.10;99084.72;4974647;28;102053;-75
2023/01/22 05:05:26;;;;;;;;;15.33;11.00;;;;;-0.92;97.92;99125.94;4969376;28;104273;-80
2023/01/22 05:07:53;;;;;;;;;7.33;7.00;;;;;-0.90;97.77;99117.84;4973281;28;102174;-76
2023/01/22 05:10:20;;;;;;;;;17.67;14.00;;;;;-0.91;97.80;99135.59;4953425;28;102278;-76
2023/01/22 05:12:48;;;;;;;;;20.67;15.67;;;;;-0.98;96.82;99139.66;4960467;28;102595;-76
2023/01/22 05:15:15;;;;;;;;;14.00;11.00;;;;;-0.94;96.81;99135.81;4958960;28;103587;-74
2023/01/22 05:17:51;;;;;;;;;16.67;15.33;;;;;-1.05;96.34;99129.63;4960216;28;102240;-75
2023/01/22 05:20:18;;;;;;;;;21.67;16.00;;;;;-1.06;96.85;99120.81;4950837;28;102130;-74
2023/01/22 05:22:46;;;;;;;;;12.00;11.00;;;;;-0.94;97.81;99129.66;4949904;28;102202;-75
2023/01/22 05:25:13;;;;;;;;;8.33;5.00;;;;;-0.92;96.80;99131.25;4946089;28;103531;-74
2023/01/22 05:27:40;;;;;;;;;18.00;14.33;;;;;-1.01;97.06;99139.06;4970433;28;102453;-75
2023/01/22 05:30:08;;;;;;;;;13.33;11.33;;;;;-0.94;97.30;99141.13;4970839;28;102265;-75
2023/01/22 05:32:35;;;;;;;;;11.00;8.00;;;;;-0.92;96.97;99135.72;4970676;28;102244;-76
2023/01/22 05:35:04;;;;;;;;;19.33;12.00;;;;;-0.96;97.29;99135.09;4932790;28;104263;-74
2023/01/22 05:37:31;;;;;;;;;15.33;13.00;;;;;-1.19;96.82;99103.28;4962505;28;103044;-74
2023/01/22 05:39:58;;;;;;;;;17.67;9.00;;;;;-0.95;97.82;99144.75;4959933;28;104777;-74
2023/01/22 05:42:25;;;;;;;;;11.00;8.67;;;;;-0.96;97.58;99155.47;4954330;28;102388;-75
2023/01/22 05:44:52;;;;;;;;;14.00;9.67;;;;;-1.08;97.83;99125.38;4962828;28;104119;-74
2023/01/22 05:47:19;;;;;;;;;12.67;8.67;;;;;-0.92;97.78;99152.47;4961332;28;102192;-74
2023/01/22 05:49:46;;;;;;;;;12.00;11.00;;;;;-0.92;96.83;99152.47;4955778;28;102283;-75
2023/01/22 05:52:13;;;;;;;;;10.33;8.00;;;;;-0.98;96.84;99152.94;4966813;28;102200;-75
2023/01/22 05:54:40;;;;;;;;;15.33;11.33;;;;;-0.93;97.30;99157.91;4969748;28;103410;-75
2023/01/22 05:57:07;;;;;;;;;14.00;11.67;;;;;-0.95;97.02;99166.00;4968987;28;102237;-74
2023/01/22 05:59:34;;;;;;;;;5.00;4.00;;;;;-1.03;97.52;99156.88;4971103;28;102085;-76
2023/01/22 06:02:01;;;;;;;;;21.67;16.00;;;;;-1.00;97.34;99170.81;4967412;28;102218;-74
2023/01/22 06:04:29;;;;;;;;;11.33;9.67;;;;;-0.95;98.24;99183.72;4968284;28;103702;-75
2023/01/22 06:06:56;;;;;;;;;10.67;8.33;;;;;-0.96;98.46;99184.69;4956059;28;102091;-74
2023/01/22 06:09:23;;;;;;;;;11.33;10.33;;;;;-0.94;98.66;99191.56;4966417;28;102314;-75
2023/01/22 06:11:51;;;;;;;;;10.33;8.33;;;;;-0.91;98.35;99191.34;4957717;28;102224;-75
2023/01/22 06:14:18;;;;;;;;;8.67;7.00;;;;;-0.88;97.82;99189.41;4956349;28;103999;-75
2023/01/22 06:16:45;;;;;;;;;12.33;8.00;;;;;-0.89;98.52;99193.88;4971850;28;102092;-75
2023/01/22 06:19:12;;;;;;;;;22.67;14.33;;;;;-0.95;97.53;99192.53;4971155;28;102419;-75
2023/01/22 06:21:42;;;;;;;;;16.00;13.33;;;;;-0.94;98.06;99191.56;4971955;28;102061;-75
2023/01/22 06:24:09;;;;;;;;;18.00;15.00;;;;;-0.91;98.60;99178.06;4971586;28;104193;-75
2023/01/22 06:26:36;;;;;;;;;15.33;11.67;;;;;-0.87;98.65;99183.13;4973134;28;102213;-75
2023/01/22 06:29:04;;;;;;;;;11.00;6.33;;;;;-0.84;98.82;99190.88;4969083;28;102635;-75
2023/01/22 06:31:31;;;;;;;;;9.00;8.67;;;;;-0.96;98.05;99185.53;4966560;28;102282;-74
2023/01/22 06:33:58;;;;;;;;;8.75;6.00;;;;;-0.88;98.11;99189.41;4953430;28;103433;-74
2023/01/22 06:36:25;;;;;;;;;16.33;10.33;;;;;-0.81;97.63;99199.44;4958236;28;102490;-75
2023/01/22 06:38:52;;;;;;;;;13.67;8.00;;;;;-0.82;98.05;99195.13;4951032;28;102435;-76
2023/01/22 06:41:19;;;;;;;;;8.00;6.33;;;;;-0.78;98.58;99206.34;4964204;28;102214;-74
2023/01/22 06:43:46;;;;;;;;;9.00;6.00;;;;;-0.83;97.82;99187.25;4963784;28;104002;-74
2023/01/22 06:46:13;;;;;;;;;5.00;2.00;;;;;-0.75;97.88;99199.00;4962422;28;102429;-75
2023/01/22 06:48:42;;;;;;;;;13.00;12.00;;;;;-0.80;98.43;99187.00;4967984;28;102357;-75
2023/01/22 06:51:09;;;;;;;;;12.33;12.00;;;;;-0.78;98.64;99185.09;4970594;28;102253;-75
2023/01/22 06:53:37;;;;;;;;;26.00;21.33;;;;;-0.94;97.97;99191.56;4970940;28;104258;-75
2023/01/22 06:56:04;;;;;;;;;16.33;14.00;;;;;-0.83;99.17;99189.91;4971196;28;104857;-75
2023/01/22 06:58:31;;;;;;;;;15.67;14.00;;;;;-0.85;98.26;99186.50;4970787;28;102287;-75
2023/01/22 07:01:03;;;;;;;;;17.00;15.00;;;;;-0.89;99.47;99188.56;4971523;28;102178;-76
2023/01/22 07:03:30;;;;;;;;;19.33;12.67;;;;;-0.84;98.58;99193.50;4969601;28;104772;-76
2023/01/22 07:06:03;;;;;;;;;21.00;17.33;;;;;-0.88;99.33;99202.69;4970834;28;102165;-76
2023/01/22 07:08:32;;;;;;;;;19.00;14.33;;;;;-0.81;99.09;99202.09;4969734;28;102037;-76
2023/01/22 07:11:00;;;;;;;;;15.67;15.33;;;;;-0.96;98.53;99174.06;4971634;28;102490;-76
2023/01/22 07:13:27;;;;;;;;;14.67;11.67;;;;;-0.70;98.85;99195.97;4962966;28;103979;-76
2023/01/22 07:15:54;;;;;;;;;14.67;11.33;;;;;-0.72;98.73;99201.41;4973260;28;102432;-75
2023/01/22 07:18:22;;;;;;;;;14.00;14.00;;;;;-0.70;97.87;99193.34;4956502;28;102346;-74
2023/01/22 07:20:49;;;;;;;;;16.33;12.67;;;;;-0.77;98.58;99179.69;4953907;28;102242;-76
2023/01/22 07:23:17;;;;;;;;;13.00;10.67;;;;;-0.62;98.05;99204.22;4960778;28;104366;-74
2023/01/22 07:25:44;;;;;;;;;18.33;15.00;;;;;-0.66;97.95;99206.25;4967346;28;105930;-74
2023/01/22 07:28:13;;;;;;;;;8.00;5.00;;;;;-0.67;97.55;99198.41;4971616;28;102317;-75
2023/01/22 07:30:42;;;;;;;;;29.67;20.67;;;;;-0.81;98.68;99217.19;4972455;28;102050;-75
2023/01/22 07:33:10;;;;;;;;;19.33;18.00;;;;;-0.75;98.70;99228.19;4971001;28;103940;-75
2023/01/22 07:35:37;;;;;;;;;15.00;13.67;;;;;-0.69;98.30;99242.81;4971304;28;102181;-74
2023/01/22 07:38:05;;;;;;;;;11.00;11.00;;;;;-0.62;99.25;99238.72;4965691;28;102489;-74
2023/01/22 07:40:32;;;;;;;;;20.00;15.00;;;;;-0.59;97.44;99236.72;4971493;28;102112;-76
2023/01/22 07:43:04;;;;;;;;;16.00;12.67;;;;;-0.51;97.78;99241.44;4956913;28;108614;-76
2023/01/22 07:45:31;;;;;;;;;14.33;14.00;;;;;-0.54;97.69;99237.19;4941960;28;102022;-74
2023/01/22 07:47:59;;;;;;;;;14.67;12.00;;;;;-0.54;97.06;99237.19;4949627;28;102603;-74
2023/01/22 07:50:28;;;;;;;;;19.00;16.33;;;;;-0.63;97.55;99213.16;4953216;28;101942;-74
2023/01/22 07:52:56;;;;;;;;;17.00;14.00;;;;;-0.48;97.88;99230.56;4960370;28;104056;-74
2023/01/22 07:55:23;;;;;;;;;20.33;17.33;;;;;-0.56;97.80;99220.53;4957617;28;102280;-74
2023/01/22 07:57:58;;;;;;;;;25.67;17.67;;;;;-0.48;97.59;99228.78;4959232;28;102045;-75
2023/01/22 08:00:25;;;;;;;;;24.67;15.67;;;;;-0.35;98.09;99236.66;4974344;28;101998;-74
2023/01/22 08:02:53;;;;;;;;;16.00;13.00;;;;;-0.19;96.64;99239.84;4976842;28;104014;-74
2023/01/22 08:05:20;;;;;;;;;13.00;11.00;;;;;-0.04;96.50;99230.66;4972842;28;102445;-75
2023/01/22 08:07:47;;;;;;;;;27.33;22.33;;;;;0.07;94.36;99242.28;4971582;28;102254;-75
2023/01/22 08:10:15;;;;;;;;;13.00;10.33;;;;;0.20;94.89;99237.69;4972264;28;102018;-74
2023/01/22 08:12:43;;;;;;;;;8.67;8.33;;;;;0.37;94.52;99246.03;4971397;28;104395;-75
2023/01/22 08:15:12;;;;;;;;;19.67;14.33;;;;;0.36;92.40;99252.31;4964819;28;102339;-75
2023/01/22 08:17:39;;;;;;;;;14.50;12.50;;;;;0.40;92.57;99251.13;4973141;27;107551;-74
2023/01/22 08:20:07;;;;;;;;;8.50;8.00;;;;;0.56;93.41;99256.06;4954357;28;102026;-74
2023/01/22 08:22:34;;;;;;;;;10.00;9.00;;;;;0.62;91.70;99258.25;4950110;28;104328;-74
2023/01/22 08:25:01;;;;;;;;;9.00;8.00;;;;;0.70;91.73;99260.28;4967323;28;102552;-74
2023/01/22 08:27:28;;;;;;;;;14.25;12.00;;;;;0.60;91.32;99259.31;4956999;28;102227;-74
2023/01/22 08:29:55;;;;;;;;;10.00;9.00;;;;;0.60;91.93;99236.22;4967449;28;102936;-74
2023/01/22 08:32:23;;;;;;;;;9.00;9.00;;;;;0.57;90.83;99249.78;4971862;28;108701;-74
2023/01/22 08:34:53;;;;;;;;;21.67;15.33;;;;;0.71;92.18;99254.00;4950676;28;102175;-74
2023/01/22 08:37:23;;;;;;;;;24.25;17.50;;;;;0.70;91.46;99254.97;4968029;28;102107;-74
2023/01/22 08:39:50;;;;;;;;;22.67;18.67;;;;;0.56;90.87;99256.06;4967201;28;101995;-75
2023/01/22 08:42:17;;;;;;;;;20.00;16.00;;;;;0.67;92.70;99255.22;4967982;28;104125;-74
2023/01/22 08:44:44;;;;;;;;;26.33;21.67;;;;;0.63;91.81;99259.91;4954524;28;102160;-76
2023/01/22 08:47:11;;;;;;;;;18.33;15.33;;;;;0.75;91.64;99253.63;4954545;28;102077;-74
2023/01/22 08:49:38;;;;;;;;;18.67;17.00;;;;;0.80;91.52;99247.94;4963226;28;102053;-75
2023/01/22 08:52:06;;;;;;;;;20.25;15.50;;;;;0.79;91.24;99249.75;4959324;28;103665;-75
2023/01/22 08:54:33;;;;;;;;;6.50;6.50;;;;;0.86;91.48;99258.91;4956241;28;102004;-75
2023/01/22 08:57:00;;;;;;;;;13.00;11.25;;;;;0.79;91.14;99241.75;4957507;28;101902;-75
2023/01/22 08:59:27;;;;;;;;;18.25;14.00;;;;;0.79;91.88;99257.72;4960436;28;102294;-75
2023/01/22 09:01:58;;;;;;;;;25.00;17.33;;;;;0.78;91.04;99250.72;4958727;28;108544;-75
2023/01/22 09:04:25;;;;;;;;;25.67;21.00;;;;;0.63;91.67;99265.25;4958385;28;102439;-75
2023/01/22 09:06:53;;;;;;;;;22.33;14.67;;;;;0.69;92.52;99237.28;4969301;28;104198;-75
2023/01/22 09:09:20;;;;;;;;;20.33;15.33;;;;;0.86;91.74;99261.59;4973135;28;102530;-75
2023/01/22 09:11:47;;;;;;;;;12.50;12.25;;;;;0.84;91.87;99255.56;4969833;28;103507;-75
2023/01/22 09:14:14;;;;;;;;;11.75;11.00;;;;;0.83;90.98;99255.66;4969804;28;102407;-77
2023/01/22 09:16:41;;;;;;;;;17.33;14.33;;;;;0.82;92.43;99256.63;4962662;28;102097;-74
2023/01/22 09:19:09;;;;;;;;;18.75;16.25;;;;;0.82;91.14;99252.16;4962896;28;103871;-75
2023/01/22 09:21:36;;;;;;;;;14.25;12.00;;;;;0.87;92.01;99247.31;4969082;28;103971;-75
2023/01/22 09:24:05;;;;;;;;;13.75;11.50;;;;;1.02;91.69;99247.03;4958711;28;102237;-77
2023/01/22 09:26:32;;;;;;;;;26.00;22.33;;;;;0.76;91.76;99247.34;4975124;28;102094;-77
2023/01/22 09:29:00;;;;;;;;;18.00;17.00;;;;;0.85;92.56;99246.59;4972326;28;102424;-78
2023/01/22 09:31:27;;;;;;;;;21.75;16.25;;;;;0.96;91.39;99236.88;4974666;28;103681;-77
2023/01/22 09:33:54;;;;;;;;;19.00;16.00;;;;;1.00;90.95;99249.81;4973641;28;102306;-75
2023/01/22 09:36:21;;;;;;;;;18.00;16.75;;;;;1.07;91.31;99256.34;4967226;28;102288;-75
2023/01/22 09:38:48;;;;;;;;;22.50;20.25;;;;;1.04;91.58;99255.72;4972132;28;103159;-77
2023/01/22 09:41:27;;;;;;;;;21.25;20.25;;;;;1.02;91.48;99250.53;4984031;28;103181;-77
2023/01/22 09:43:59;;;;;;;;;22.75;15.75;;;;;1.04;91.25;99259.25;4972636;28;102099;-77
2023/01/22 09:46:32;;;;;;;;;20.25;17.50;;;;;0.97;92.02;99259.88;4966174;28;102489;-76
2023/01/22 09:49:07;;;;;;;;;19.00;16.00;;;;;1.02;92.14;99245.22;4968108;28;102359;-76
2023/01/22 09:51:35;;;;;;;;;14.50;13.25;;;;;0.98;92.43;99257.09;4964019;28;104035;-77
2023/01/22 09:54:04;;;;;;;;;12.00;8.75;;;;;1.11;92.65;99254.28;4959160;28;102346;-76
2023/01/22 09:56:40;;;;;;;;;17.50;15.75;;;;;0.91;92.45;99255.88;4953452;28;102393;-76
2023/01/22 09:59:15;;;;;;;;;16.33;14.67;;;;;0.88;93.30;99261.47;4949113;28;102127;-77
2023/01/22 10:01:46;;;;;;;;;13.25;13.25;;;;;0.95;93.84;99257.31;4954315;28;104013;-77
2023/01/22 10:04:24;;;;;;;;;12.00;10.00;;;;;1.05;93.29;99257.44;4937993;28;102417;-77
2023/01/22 10:06:55;;;;;;;;;14.75;12.50;;;;;1.12;92.91;99261.31;4961482;28;102015;-76
2023/01/22 10:09:23;;;;;;;;;16.25;13.25;;;;;1.08;92.60;99257.19;4959012;28;102335;-77
2023/01/22 10:11:53;;;;;;;;;13.00;10.00;;;;;1.07;92.51;99258.16;4937847;28;104159;-77
2023/01/22 10:14:25;;;;;;;;;17.25;12.75;;;;;1.02;92.83;99244.38;4950971;28;101992;-76
2023/01/22 10:16:53;;;;;;;;;16.75;13.50;;;;;1.08;92.03;99246.53;4954064;28;101784;-76
2023/01/22 10:19:37;;;;;;;;;14.00;12.50;;;;;1.04;92.87;99224.63;4959122;28;102371;-77
2023/01/22 10:22:12;;;;;;;;;18.25;14.25;;;;;1.14;92.07;99251.34;4959785;28;109106;-76
2023/01/22 10:24:39;;;;;;;;;21.00;16.00;;;;;1.18;91.50;99264.28;4957516;28;102123;-76
2023/01/22 10:27:15;;;;;;;;;17.75;14.75;;;;;1.32;91.88;99257.81;4967907;28;103687;-75
2023/01/22 10:29:56;;;;;;;;;13.25;12.00;;;;;1.43;91.36;99265.78;4966261;28;102334;-77
2023/01/22 10:32:28;;;;;;;;;16.75;13.00;;;;;1.39;90.18;99263.50;4971987;28;104425;-76
2023/01/22 10:34:59;;;;;;;;;19.75;16.50;;;;;1.40;90.49;99270.53;4969352;27;104580;-77
2023/01/22 10:37:26;;;;;;;;;23.25;18.25;;;;;1.23;91.35;99246.13;4950670;28;102414;-76
2023/01/22 10:39:58;;;;;;;;;11.00;10.00;;;;;1.46;91.00;99270.00;4975240;28;102261;-77
2023/01/22 10:42:28;;;;;;;;;17.00;13.75;;;;;1.41;91.25;99259.72;4965899;28;108657;-77
2023/01/22 10:45:08;;;;;;;;;22.75;16.00;;;;;1.46;90.71;99259.34;4971098;28;102664;-77
2023/01/22 10:47:36;;;;;;;;;21.25;16.00;;;;;1.54;90.09;99255.06;4971299;28;102314;-76
2023/01/22 10:50:14;;;;;;;;;22.50;14.75;;;;;1.57;89.86;99259.31;4973142;28;102050;-77
2023/01/22 10:52:47;;;;;;;;;11.00;10.75;;;;;1.61;90.11;99240.28;4968397;28;104055;-78
2023/01/22 10:55:27;;;;;;;;;13.25;9.50;;;;;1.70;89.36;99250.16;4971529;27;101977;-77
2023/01/22 10:57:58;;;;;;;;;20.25;14.25;;;;;1.59;89.25;99260.00;4972935;28;102225;-78
2023/01/22 11:00:29;;;;;;;;;14.00;12.00;;;;;1.64;90.24;99255.16;4972116;28;102225;-77
2023/01/22 11:03:22;;;;;;;;;6.25;5.75;;;;;1.70;90.05;99267.97;4968851;28;108761;-77
2023/01/22 11:05:58;;;;;;;;;16.25;11.50;;;;;1.40;89.23;99227.91;4957668;28;102405;-77
2023/01/22 11:08:32;;;;;;;;;17.00;14.25;;;;;1.57;90.39;99262.81;4961650;28;102356;-77
2023/01/22 11:11:04;;;;;;;;;25.75;19.25;;;;;1.43;90.99;99271.13;4961230;28;102417;-76
2023/01/22 11:13:52;;;;;;;;;12.50;10.00;;;;;1.45;91.82;99250.50;4952995;28;104000;-77
2023/01/22 11:16:23;;;;;;;;;14.00;12.50;;;;;1.51;91.45;99268.66;4964339;28;102424;-78
2023/01/22 11:18:59;;;;;;;;;18.00;11.25;;;;;1.59;91.87;99268.84;4967959;28;102302;-78
2023/01/22 11:21:50;;;;;;;;;18.50;10.50;;;;;1.60;91.24;99265.22;4979632;28;102731;-78
2023/01/22 11:24:37;;;;;;;;;10.00;8.00;;;;;1.58;90.73;99261.81;4954420;28;107312;-77
2023/01/22 11:27:13;;;;;;;;;16.50;12.50;;;;;1.58;92.06;99264.50;4974018;28;102087;-78
2023/01/22 11:30:05;;;;;;;;;12.50;9.75;;;;;1.56;91.65;99263.78;4959711;28;102274;-78